Aeroporto :
LOGIN :

Iscrizione | Disclaimer

   EN    FR    IT 

 










Sommario :    VFR   VFR Marginale   IFR   IFR Intensivo   IFR Molto Intensivo
Visibilità : 
Base nubi : 
>= 8 km
>= 3000ft
5 / 8 km
1000 / 3000 ft
1500m / 5 km
500 / 1000 ft
800 / 1500m
200 / 500 ft
< 800m
< 200 ft
Simboli :   Temporali  Nebbia  Neve Forte  Precipitazioni Forti  Vento > 20 kt
SIGMETs :   Varie  Temporali  Ghiacco  Turbolenza  Onda orograficha  Ceneri Vulcaniche






- Altitudine del aeroporto : 40 ft
- Codice IATA : RMI


LIPR - Federico Fellini Int. Rimini

ULTIMO METAR :
  • 230250Z AUTO VRB02KT 9999 NCD 23/18 Q1014

METARs OBSOLETI :
  • 230220Z AUTO 23005KT 9999 NCD 23/18 Q1014
  • 230150Z AUTO 24005KT 9999 NCD 23/18 Q1014
  • 230120Z AUTO 23004KT 200V260 9999 NCD 23/18 Q1014
  • 230050Z AUTO 23004KT 9999 NCD 23/19 Q1014
  • 230020Z AUTO VRB02KT 9999 NCD 23/19 Q1014
  • 222350Z AUTO 23002KT 9999 NCD 23/19 Q1014
  • 222320Z AUTO VRB02KT 9999 NCD 23/19 Q1014
  • 222250Z AUTO 22005KT 9999 NCD 24/19 Q1014
  • 222220Z AUTO VRB02KT 9999 NCD 24/19 Q1014
  • 222150Z AUTO VRB02KT 9999 NCD 24/19 Q1014

TAF TAF LIPR
Valido dal 23 a 00 ore il 24 a 00 ore UTC


222300Z 2300/2324 VRB05KT 9999 FEW030
BECMG 2310/2312 06010KT
PROB40
TEMPO 2314/2318 4000 TSRA
BECMG 2316/2318 VRB05KT



MetMap, La meteo Aeronautica in un colpo d'occhio ! - Copyright ORBIFLY Dicembre 2007 - Disclaimer

ORBIFLY MET'MAP TEAM :

Programmazione e sviluppo : Alexandra Zaïnal
Concezione : Baudouin d'Aumeries
Supporto tecnico e logistico : Manuel Goepfert
Aiuto : Marc-Olivier Méhu
Aiuto per la traduzione : Arnaldo La Scala




FONTI E CREDITI :

   NOAA